Terminal Aerodrome Forecast
Issued by NWS Shreveport, LA

Home | Current Version | Previous Version | Text Only | Print | Product List | Glossary On
Versions: 1 2 3 4 5 6 7 8 9 10 11 12 13 14 15 16 17 18 19 20 21 22 23 24 25 26 27 28 29 30
000
FTUS44 KSHV 191143
TAFTXK
TAF
KTXK 191143Z 1912/2012 20005KT P6SM VCTS SCT030 BKN050CB
      TEMPO 1912/1913 VRB15G25KT 2SM TSRA BR BKN015CB
     FM191300 33008KT 6SM -RA BR SCT035 BKN080
     FM191400 VRB05KT P6SM SCT100 BKN250
     FM191800 22010KT P6SM SCT040 SCT250
     FM200100 20009KT P6SM VCTS BKN040CB
     FM200600 VRB05KT P6SM SCT080 BKN150 BKN250=

USA.gov is the U.S. government's official web portal to all federal, state and local government web resources and services.